LTBO

Details ICAO LTBO (USQ)
Name USAK
Region Turkey
Timezone Europe/Istanbul (UTC+3.0)
Plans Departing 0
Arriving 1
Stats Elevation 2,897 ft / 883 m (AMSL)
Location 38.681477° 29.471675°
Runways 1
Magnetic Variation 5.095° E
Sunrise 2017-01-24 05:15:20 UTC / 2017-01-24 08:15:20 Local
Sunset 2017-01-24 15:15:22 UTC / 2017-01-24 18:15:22 Local
Advertisement - Login to hide

Runways

ID Width Length Bearing (true) Bearing (mag) Surface Threshold Offset Overrun Length
09 98 ft / 30 m 8,366 ft / 2,550 m 90.95° 85.86° Concrete 0 ft / 0 m 98 ft / 30 m
27 98 ft / 30 m 8,366 ft / 2,550 m 270.97° 265.88° Concrete 0 ft / 0 m 98 ft / 30 m

Map

Weather

Temperature
Clouds and Precipitation
Forecast for 2017-01-24 06:00 UTC. Updated 2 hours ago
Winds

METAR

LTBO 240550Z 23003KT 180V270 9999 BKN035 BKN100 00/M06 Q1021

TAF

Not found

Frequencies

Tower 121.70 MHz TWR
Approach 132.05 MHz MENDERES APP
Tower 121.42 MHz TWR
Warning: Do not use this data for real-world aviation or navigation. No guarantee of current accuracy is given.